Airfield :
LOGIN :

Register | Disclaimer

   EN    FR    IT 

 










Legend :    VFR   Marginal VFR   IFR   Intensive IFR   Very Intensive IFR
Visi :
Ceiling :
>= 8 km
>= 3000ft
5 to 8 km
1000 to 3000 ft
1500m to 5 km
500 to 1000 ft
800 to 1500m
200 to 500 ft
< 800m
< 200 ft
Symbols :   Thunderstorms  Fog  Heavy snow  Heavy precipitations  Wind > 20 kt
SIGMETs :     Misc.  Thunderstorms  Icing  Turbulence  Mountain Waves  Volcanic Ashes







- Airport Elevation : 308 ft
- IATA code : POZ


EPPO - Poznan-Lawica

CURRENT METAR :
  • 152030Z 07006KT 6000 BKN009 M00/M01 Q1026 R10/29//95

EXPIRED METARs :
  • 152000Z 07007KT 6000 SCT010 M00/M01 Q1026 R10/29//95
  • 151930Z 07007KT 7000 BKN049 M00/M01 Q1026 R10/29//95
  • 151900Z 06007KT 8000 BKN048 M00/M01 Q1027 R10/29//95
  • 151830Z 07006KT 9999 BKN047 M01/M02 Q1027 R10/29//95
  • 151800Z 07007KT 9999 FEW048 M01/M03 Q1027 R10/29//95

TAF TAF EPPO
Valid from the 15 at 18:00 until the 16 at 18:00 UTC


151730Z 1518/1618 07006KT 8000 BKN028
TEMPO 1518/1614 4000 -SN BR BKN007 OVC015
PROB40
TEMPO 1518/1604 2800 -SN BR BKN004 OVC015
No reported NOTAMs for that airfield.



MET'MAP, your aeronautical weather chart ! - Copyright ORBIFLY December 2007 - Disclaimer

ORBIFLY MET'MAP TEAM :

Programming & Development : Alexandra Zaïnal
Concept & Development : Baudouin d'Aumeries
Co-Development & Prog : Marc-Olivier Méhu
Technical & hardware support : Manuel Goepfert

Contact : metmap@orbifly.com




SOURCES & CREDITS :

   NOAA